Time;durP1;ratioP1;P1;durP2;ratioP2;P2;SDS_P1;SDS_P2;PMS_P1;PMS_P2;Temp;Humidity;BMP_temperature;BMP_pressure;BME280_temperature;BME280_humidity;BME280_pressure;Samples;Min_cycle;Max_cycle;Signal;HPM_P1;HPM_P2
2023/09/05 00:01:55;;;;;;;;;;;;;;;14.65;100.00;102265.00;5056452;28;20017;-86
2023/09/05 00:04:44;;;;;;;;;;;;;;;14.65;100.00;102263.22;5079770;28;19939;-85
2023/09/05 00:07:30;;;;;;;;;;;;;;;14.68;100.00;102264.91;5082117;28;19927;-85
2023/09/05 00:10:16;;;;;;;;;;;;;;;14.69;100.00;102261.31;5064311;28;19928;-85
2023/09/05 00:13:05;;;;;;;;;;;;;;;14.71;100.00;102274.56;5081729;28;20002;-85
2023/09/05 00:15:51;;;;;;;;;;;;;;;14.71;100.00;102262.09;5080761;28;19932;-85
2023/09/05 00:18:37;;;;;;;;;;;;;;;14.71;100.00;102266.59;5081841;28;19932;-85
2023/09/05 00:21:29;;;;;;;;;;;;;;;14.69;100.00;102258.63;5065876;28;19928;-86
2023/09/05 00:24:25;;;;;;;;;;;;;;;14.67;100.00;102261.34;5082195;28;19934;-84
2023/09/05 00:27:11;;;;;;;;;;;;;;;14.64;100.00;102261.50;5064386;28;19959;-85
2023/09/05 00:29:57;;;;;;;;;;;;;;;14.61;100.00;102260.75;5064813;28;19932;-84
2023/09/05 00:32:45;;;;;;;;;;;;;;;14.60;100.00;102253.69;5079883;28;19992;-85
2023/09/05 00:35:30;;;;;;;;;;;;;;;14.58;100.00;102256.41;5080031;28;20374;-85
2023/09/05 00:38:17;;;;;;;;;;;;;;;14.58;100.00;102253.75;5083266;28;20002;-86
2023/09/05 00:41:03;;;;;;;;;;;;;;;14.59;100.00;102251.97;5051393;28;19932;-85
2023/09/05 00:43:49;;;;;;;;;;;;;;;14.56;100.00;102255.63;5064320;28;19920;-86
2023/09/05 00:46:34;;;;;;;;;;;;;;;14.56;100.00;102254.72;5062020;28;19932;-85
2023/09/05 00:49:22;;;;;;;;;;;;;;;14.55;100.00;102255.66;5076836;28;19932;-84
2023/09/05 00:52:11;;;;;;;;;;;;;;;14.53;100.00;102245.94;5063940;28;20776;-85
2023/09/05 00:54:57;;;;;;;;;;;;;;;14.52;100.00;102257.53;5061725;28;19955;-86
2023/09/05 00:57:43;;;;;;;;;;;;;;;14.52;100.00;102254.88;5052452;28;20855;-85
2023/09/05 01:00:28;;;;;;;;;;;;;;;14.51;100.00;102249.59;5078200;28;19935;-85
2023/09/05 01:03:14;;;;;;;;;;;;;;;14.52;100.00;102244.22;5068175;28;19920;-85
2023/09/05 01:06:02;;;;;;;;;;;;;;;14.52;100.00;102236.22;5075568;28;19998;-84
2023/09/05 01:08:56;;;;;;;;;;;;;;;14.50;100.00;102230.06;5061419;28;19931;-86
2023/09/05 01:11:42;;;;;;;;;;;;;;;14.50;100.00;102226.53;5072957;28;20133;-85
2023/09/05 01:14:28;;;;;;;;;;;;;;;14.47;100.00;102230.19;5066072;28;19985;-85
2023/09/05 01:17:14;;;;;;;;;;;;;;;14.45;100.00;102216.06;5061997;28;19924;-83
2023/09/05 01:19:59;;;;;;;;;;;;;;;14.46;100.00;102224.91;5074740;28;19928;-85
2023/09/05 01:25:16;;;;;;;;;;;;;;;14.46;100.00;102227.59;5077282;22;20323;-85
2023/09/05 01:28:02;;;;;;;;;;;;;;;14.43;100.00;102220.56;5060880;28;20022;-87
2023/09/05 01:30:51;;;;;;;;;;;;;;;14.39;100.00;102217.16;5061218;28;20401;-84
2023/09/05 01:33:38;;;;;;;;;;;;;;;14.39;100.00;102214.50;5056207;28;20027;-86
2023/09/05 01:36:23;;;;;;;;;;;;;;;14.38;100.00;102212.78;5056277;28;19993;-85
2023/09/05 01:39:12;;;;;;;;;;;;;;;14.34;100.00;102203.16;5055964;28;19960;-84
2023/09/05 01:41:58;;;;;;;;;;;;;;;14.33;100.00;102208.56;5068293;28;19932;-85
2023/09/05 01:44:44;;;;;;;;;;;;;;;14.31;100.00;102207.72;5062089;28;19981;-86
2023/09/05 01:47:30;;;;;;;;;;;;;;;14.29;100.00;102209.59;5071329;28;20070;-85
2023/09/05 01:50:23;;;;;;;;;;;;;;;14.26;100.00;102208.81;5065763;28;19982;-85
2023/09/05 01:53:11;;;;;;;;;;;;;;;14.23;100.00;102208.06;5068165;28;19935;-84
2023/09/05 01:56:00;;;;;;;;;;;;;;;14.22;100.00;102201.00;5058613;28;20298;-86
2023/09/05 01:58:46;;;;;;;;;;;;;;;14.18;100.00;102199.38;5056525;28;19972;-86
2023/09/05 02:01:32;;;;;;;;;;;;;;;14.14;100.00;102203.94;5055080;28;19934;-83
2023/09/05 02:04:30;;;;;;;;;;;;;;;14.12;100.00;102205.81;5031578;28;19931;-84
2023/09/05 02:07:18;;;;;;;;;;;;;;;14.11;100.00;102198.75;5042580;28;19932;-86
2023/09/05 02:10:05;;;;;;;;;;;;;;;14.07;100.00;102189.16;5056269;28;20483;-86
2023/09/05 02:12:51;;;;;;;;;;;;;;;14.07;100.00;102197.13;5059578;28;19932;-87
2023/09/05 02:15:37;;;;;;;;;;;;;;;14.04;100.00;102192.78;5043084;28;20000;-85
2023/09/05 02:18:23;;;;;;;;;;;;;;;14.02;100.00;102188.44;5040668;28;19933;-84
2023/09/05 02:21:12;;;;;;;;;;;;;;;13.98;100.00;102188.59;5046574;28;19942;-86
2023/09/05 02:23:58;;;;;;;;;;;;;;;13.96;100.00;102185.09;5031701;28;19967;-86
2023/09/05 02:26:43;;;;;;;;;;;;;;;13.97;100.00;102180.66;5062318;28;20394;-86
2023/09/05 02:29:29;;;;;;;;;;;;;;;13.95;100.00;102175.38;5043872;28;19931;-85
2023/09/05 02:32:17;;;;;;;;;;;;;;;13.96;100.00;102171.78;5060501;28;19992;-86
2023/09/05 02:35:04;;;;;;;;;;;;;;;13.96;100.00;102168.25;5041970;28;20018;-85
2023/09/05 02:37:50;;;;;;;;;;;;;;;13.96;100.00;102169.13;5061960;28;20016;-85
2023/09/05 02:40:36;;;;;;;;;;;;;;;13.95;100.00;102161.22;5047023;28;19928;-85
2023/09/05 02:43:22;;;;;;;;;;;;;;;13.95;100.00;102155.88;5047622;28;20498;-86
2023/09/05 02:46:11;;;;;;;;;;;;;;;13.96;100.00;102162.94;5057700;28;19928;-85
2023/09/05 02:48:57;;;;;;;;;;;;;;;13.99;100.00;102157.47;5043069;28;21867;-87
2023/09/05 02:51:45;;;;;;;;;;;;;;;14.00;100.00;102153.88;5046329;28;19920;-84
2023/09/05 02:54:31;;;;;;;;;;;;;;;14.03;100.00;102152.91;5044444;28;19928;-86
2023/09/05 02:57:16;;;;;;;;;;;;;;;14.05;100.00;102164.38;5046560;28;20031;-85
2023/09/05 03:00:04;;;;;;;;;;;;;;;14.07;100.00;102167.84;5050526;28;19932;-85
2023/09/05 03:02:50;;;;;;;;;;;;;;;14.08;100.00;102151.81;5063996;28;19929;-85
2023/09/05 03:05:39;;;;;;;;;;;;;;;14.09;100.00;102156.22;5030877;28;19987;-84
2023/09/05 03:08:25;;;;;;;;;;;;;;;14.09;100.00;102164.19;5063877;28;19928;-84
2023/09/05 03:11:13;;;;;;;;;;;;;;;14.07;100.00;102163.41;5063140;28;19931;-86
2023/09/05 03:13:59;;;;;;;;;;;;;;;14.07;100.00;102162.53;5061444;28;20345;-85
2023/09/05 03:16:44;;;;;;;;;;;;;;;14.07;100.00;102163.41;5060763;28;19932;-86
2023/09/05 03:19:30;;;;;;;;;;;;;;;14.06;100.00;102163.44;5062363;28;20043;-85
2023/09/05 03:22:18;;;;;;;;;;;;;;;14.05;100.00;102156.41;5063038;28;19987;-86
2023/09/05 03:25:04;;;;;;;;;;;;;;;14.05;100.00;102156.41;5060182;28;20031;-85
2023/09/05 03:27:50;;;;;;;;;;;;;;;14.04;100.00;102151.97;5047605;28;19951;-85
2023/09/05 03:30:35;;;;;;;;;;;;;;;14.03;100.00;102159.09;5047015;28;19939;-87
2023/09/05 03:33:21;;;;;;;;;;;;;;;14.03;100.00;102152.91;5046876;28;19976;-86
2023/09/05 03:36:09;;;;;;;;;;;;;;;14.01;100.00;102152.09;5047210;28;20272;-86
2023/09/05 03:38:54;;;;;;;;;;;;;;;13.99;100.00;102155.69;5065723;28;19932;-86
2023/09/05 03:41:40;;;;;;;;;;;;;;;13.97;100.00;102154.91;5052041;28;19924;-87
2023/09/05 03:44:27;;;;;;;;;;;;;;;13.97;100.00;102154.91;5065052;28;19974;-86
2023/09/05 03:47:12;;;;;;;;;;;;;;;13.97;100.00;102151.34;5049062;28;19963;-87
2023/09/05 03:49:58;;;;;;;;;;;;;;;13.96;100.00;102147.81;5065152;28;19933;-86
2023/09/05 03:52:44;;;;;;;;;;;;;;;13.95;100.00;102148.75;5049473;28;19931;-84
2023/09/05 03:55:30;;;;;;;;;;;;;;;13.93;100.00;102144.41;5048506;28;20016;-86
2023/09/05 03:58:16;;;;;;;;;;;;;;;13.91;100.00;102138.28;5066241;28;20422;-86
2023/09/05 04:01:02;;;;;;;;;;;;;;;13.90;100.00;102142.72;5050404;28;19933;-85
2023/09/05 04:03:50;;;;;;;;;;;;;;;13.88;100.00;102138.41;5062671;28;20064;-84
2023/09/05 04:06:37;;;;;;;;;;;;;;;13.84;100.00;102137.66;5044511;28;19992;-85
2023/09/05 04:09:22;;;;;;;;;;;;;;;13.83;100.00;102135.91;5046405;28;19929;-85
2023/09/05 04:12:08;;;;;;;;;;;;;;;13.81;100.00;102129.78;5044798;28;22060;-86
2023/09/05 04:14:54;;;;;;;;;;;;;;;13.78;100.00;102129.91;5047310;28;19928;-85
2023/09/05 04:17:40;;;;;;;;;;;;;;;13.75;100.00;102130.03;5045784;28;19936;-85
2023/09/05 04:20:25;;;;;;;;;;;;;;;13.74;100.00;102126.50;5046200;28;19979;-84
2023/09/05 04:23:11;;;;;;;;;;;;;;;13.72;100.00;102128.34;5060825;28;19963;-84
2023/09/05 04:26:01;;;;;;;;;;;;;;;13.69;100.00;102118.69;5044549;28;19928;-85
2023/09/05 04:28:47;;;;;;;;;;;;;;;13.69;100.00;102128.47;5046948;28;19958;-86
2023/09/05 04:31:32;;;;;;;;;;;;;;;13.66;100.00;102120.59;5061749;28;19928;-84
2023/09/05 04:34:20;;;;;;;;;;;;;;;13.62;100.00;102114.53;5060292;28;19928;-86
2023/09/05 04:37:06;;;;;;;;;;;;;;;13.61;100.00;102120.78;5044143;28;20004;-85
2023/09/05 04:39:52;;;;;;;;;;;;;;;13.61;100.00;102120.78;5048025;28;20860;-84
2023/09/05 04:42:39;;;;;;;;;;;;;;;13.60;100.00;102118.16;5025972;28;20409;-84
2023/09/05 04:45:24;;;;;;;;;;;;;;;13.58;100.00;102129.72;5046571;28;19924;-84
2023/09/05 04:48:10;;;;;;;;;;;;;;;13.58;100.00;102121.75;5065392;28;19928;-86
2023/09/05 04:50:57;;;;;;;;;;;;;;;13.59;100.00;102125.28;5065732;28;20087;-86
2023/09/05 04:53:43;;;;;;;;;;;;;;;13.59;100.00;102119.97;5033365;28;19928;-86
2023/09/05 04:56:29;;;;;;;;;;;;;;;13.57;100.00;102114.69;5047394;28;19933;-87
2023/09/05 04:59:14;;;;;;;;;;;;;;;13.55;100.00;102113.03;5061352;28;19995;-85
2023/09/05 05:02:00;;;;;;;;;;;;;;;13.50;100.00;102112.34;5063299;28;19939;-86
2023/09/05 05:04:46;;;;;;;;;;;;;;;13.46;100.00;102110.72;5065182;28;19962;-85
2023/09/05 05:07:31;;;;;;;;;;;;;;;13.43;100.00;102106.34;5048977;28;20023;-83
2023/09/05 05:10:17;;;;;;;;;;;;;;;13.40;100.00;102107.31;5036117;28;19931;-80
2023/09/05 05:13:03;;;;;;;;;;;;;;;13.39;100.00;102110.91;5050520;28;19966;-86
2023/09/05 05:15:48;;;;;;;;;;;;;;;13.40;100.00;102106.47;5048873;28;19924;-85
2023/09/05 05:18:34;;;;;;;;;;;;;;;13.39;100.00;102102.94;5050378;28;19932;-84
2023/09/05 05:21:19;;;;;;;;;;;;;;;13.42;100.00;102110.78;5064352;28;20899;-84
2023/09/05 05:24:06;;;;;;;;;;;;;;;13.46;100.00;102116.03;5065055;28;19992;-84
2023/09/05 05:26:51;;;;;;;;;;;;;;;13.48;100.00;102116.84;5037655;28;20393;-84
2023/09/05 05:29:37;;;;;;;;;;;;;;;13.49;100.00;102113.25;5036339;28;19963;-85
2023/09/05 05:32:23;;;;;;;;;;;;;;;13.50;100.00;102110.53;5062668;28;19933;-84
2023/09/05 05:35:12;;;;;;;;;;;;;;;13.53;100.00;102112.22;5064728;28;19935;-85
2023/09/05 05:37:57;;;;;;;;;;;;;;;13.56;100.00;102112.09;5049094;28;19924;-85
2023/09/05 05:40:45;;;;;;;;;;;;;;;13.59;100.00;102106.66;5065851;28;19939;-85
2023/09/05 05:43:31;;;;;;;;;;;;;;;13.63;100.00;102102.09;5039799;28;19932;-84
2023/09/05 05:46:18;;;;;;;;;;;;;;;13.67;100.00;102101.91;5065840;28;19932;-86
2023/09/05 05:49:03;;;;;;;;;;;;;;;13.73;100.00;102108.78;5038069;28;19932;-85
2023/09/05 05:51:50;;;;;;;;;;;;;;;13.76;100.00;102107.78;5064724;28;21532;-85
2023/09/05 05:54:45;;;;;;;;;;;;;;;13.79;100.00;102118.34;5050863;28;19935;-86
2023/09/05 05:57:30;;;;;;;;;;;;;;;13.80;100.00;102120.06;5050167;28;19929;-86
2023/09/05 06:00:16;;;;;;;;;;;;;;;13.82;100.00;102126.19;5063509;28;19929;-86
2023/09/05 06:03:03;;;;;;;;;;;;;;;13.85;100.00;102118.94;5065149;28;19924;-85
2023/09/05 06:05:49;;;;;;;;;;;;;;;13.91;100.00;102122.31;5050404;28;20063;-87
2023/09/05 06:08:37;;;;;;;;;;;;;;;13.97;100.00;102116.75;5048287;28;19929;-84
2023/09/05 06:11:28;;;;;;;;;;;;;;;14.03;100.00;102113.84;5061973;28;19970;-85
2023/09/05 06:14:17;;;;;;;;;;;;;;;14.13;100.00;102119.66;5055039;28;19927;-86
2023/09/05 06:17:03;;;;;;;;;;;;;;;14.21;100.00;102122.88;5064060;28;20302;-86
2023/09/05 06:19:48;;;;;;;;;;;;;;;14.29;100.00;102127.91;5064790;28;20739;-86
2023/09/05 06:22:34;;;;;;;;;;;;;;;14.37;100.00;102133.78;5048760;28;19988;-85
2023/09/05 06:25:20;;;;;;;;;;;;;;;14.44;100.00;102133.53;5062068;28;19928;-86
2023/09/05 06:28:06;;;;;;;;;;;;;;;14.52;100.00;102134.97;5049295;28;19932;-85
2023/09/05 06:30:55;;;;;;;;;;;;;;;14.60;100.00;102117.78;5046757;28;19929;-84
2023/09/05 06:33:41;;;;;;;;;;;;;;;14.70;100.00;102120.91;5049506;28;19936;-85
2023/09/05 06:36:26;;;;;;;;;;;;;;;14.79;100.00;102116.09;5066556;28;19928;-86
2023/09/05 06:39:12;;;;;;;;;;;;;;;14.92;100.00;102127.09;5065753;28;19967;-85
2023/09/05 06:41:58;;;;;;;;;;;;;;;15.06;100.00;102120.28;5063101;28;20035;-86
2023/09/05 06:44:44;;;;;;;;;;;;;;;15.30;100.00;102131.66;5063494;28;19929;-84
2023/09/05 06:47:30;;;;;;;;;;;;;;;15.55;100.00;102127.88;5065669;28;19960;-85
2023/09/05 06:50:16;;;;;;;;;;;;;;;15.82;100.00;102115.97;5065539;28;20039;-84
2023/09/05 06:53:01;;;;;;;;;;;;;;;15.99;100.00;102125.88;5063306;28;21919;-84
2023/09/05 06:55:48;;;;;;;;;;;;;;;16.04;100.00;102120.28;5049353;28;19958;-85
2023/09/05 06:58:34;;;;;;;;;;;;;;;16.05;100.00;102122.91;5062048;28;19928;-84
2023/09/05 07:01:20;;;;;;;;;;;;;;;16.11;100.00;102124.41;5060319;28;20333;-85
2023/09/05 07:04:06;;;;;;;;;;;;;;;16.21;100.00;102124.81;5046315;28;19933;-85
2023/09/05 07:06:51;;;;;;;;;;;;;;;16.31;100.00;102126.09;5048954;28;20193;-85
2023/09/05 07:09:37;;;;;;;;;;;;;;;16.41;100.00;102123.84;5051498;28;19939;-84
2023/09/05 07:12:22;;;;;;;;;;;;;;;16.48;100.00;102125.25;5051881;28;19928;-85
2023/09/05 07:15:08;;;;;;;;;;;;;;;16.53;100.00;102120.56;5066122;28;19928;-85
2023/09/05 07:17:54;;;;;;;;;;;;;;;16.62;100.00;102121.88;5066859;28;19932;-86
2023/09/05 07:20:39;;;;;;;;;;;;;;;16.70;100.00;102124.16;5066978;28;19932;-86
2023/09/05 07:23:25;;;;;;;;;;;;;;;16.77;100.00;102124.72;5049106;28;19923;-85
2023/09/05 07:26:11;;;;;;;;;;;;;;;16.84;100.00;102123.47;5050800;28;19970;-84
2023/09/05 07:28:56;;;;;;;;;;;;;;;16.93;100.00;102120.31;5065912;28;20190;-84
2023/09/05 07:31:42;;;;;;;;;;;;;;;17.03;100.00;102115.38;5051689;28;20504;-87
2023/09/05 07:34:28;;;;;;;;;;;;;;;17.15;100.00;102111.16;5063857;28;19929;-86
2023/09/05 07:37:15;;;;;;;;;;;;;;;17.29;100.00;102115.78;5067772;28;20315;-85
2023/09/05 07:40:02;;;;;;;;;;;;;;;17.40;100.00;102123.25;5066895;28;20468;-85
2023/09/05 07:42:48;;;;;;;;;;;;;;;17.52;100.00;102121.69;5062312;28;19936;-86
2023/09/05 07:45:35;;;;;;;;;;;;;;;17.64;100.00;102114.78;5050413;28;20023;-85
2023/09/05 07:48:21;;;;;;;;;;;;;;;17.76;100.00;102116.78;5040381;28;19978;-85
2023/09/05 07:51:07;;;;;;;;;;;;;;;17.88;100.00;102114.38;5064319;28;19928;-86
2023/09/05 07:54:01;;;;;;;;;;;;;;;17.98;100.00;102115.56;5063153;28;19964;-85
2023/09/05 07:56:46;;;;;;;;;;;;;;;18.09;100.00;102120.34;5061713;28;19928;-86
2023/09/05 07:59:32;;;;;;;;;;;;;;;18.19;100.00;102120.69;5065863;28;20019;-84
2023/09/05 08:02:17;;;;;;;;;;;;;;;18.31;100.00;102121.81;5066454;28;19951;-85
2023/09/05 08:05:06;;;;;;;;;;;;;;;18.44;100.00;102125.50;5065720;28;19958;-86
2023/09/05 08:07:52;;;;;;;;;;;;;;;18.59;100.00;102129.06;5035969;28;19936;-88
2023/09/05 08:10:37;;;;;;;;;;;;;;;18.75;100.00;102130.88;5050549;28;19978;-86
2023/09/05 08:13:23;;;;;;;;;;;;;;;18.93;100.00;102136.94;5064270;28;20165;-86
2023/09/05 08:16:13;;;;;;;;;;;;;;;19.13;100.00;102137.56;5047876;28;19924;-87
2023/09/05 08:18:59;;;;;;;;;;;;;;;19.30;100.00;102124.91;5035955;28;19929;-85
2023/09/05 08:21:45;;;;;;;;;;;;;;;19.46;100.00;102119.44;5050565;28;20879;-84
2023/09/05 08:24:31;;;;;;;;;;;;;;;19.65;100.00;102111.94;5050322;28;19929;-86
2023/09/05 08:27:19;;;;;;;;;;;;;;;19.81;100.00;102110.94;5065746;28;20013;-84
2023/09/05 08:30:05;;;;;;;;;;;;;;;19.92;100.00;102103.06;5053673;28;19935;-85
2023/09/05 08:32:51;;;;;;;;;;;;;;;20.08;100.00;102096.69;5067301;28;19928;-86
2023/09/05 08:35:37;;;;;;;;;;;;;;;20.22;100.00;102102.00;5066399;28;19933;-85
2023/09/05 08:38:23;;;;;;;;;;;;;;;20.36;100.00;102108.28;5048247;28;19936;-86
2023/09/05 08:41:15;;;;;;;;;;;;;;;20.55;100.00;102107.91;5051882;28;20406;-85
2023/09/05 08:44:01;;;;;;;;;;;;;;;20.68;100.00;102109.75;5052003;28;19924;-85
2023/09/05 08:46:46;;;;;;;;;;;;;;;20.72;100.00;102106.75;5052381;28;19934;-85
2023/09/05 08:49:32;;;;;;;;;;;;;;;20.86;100.00;102102.28;5052885;28;21769;-85
2023/09/05 08:52:21;;;;;;;;;;;;;;;20.97;100.00;102105.06;5068116;28;19939;-85
2023/09/05 08:55:06;;;;;;;;;;;;;;;21.13;100.00;102104.00;5068241;28;20497;-85
2023/09/05 08:57:54;;;;;;;;;;;;;;;21.26;100.00;102099.47;5068102;28;19927;-86
2023/09/05 09:00:39;;;;;;;;;;;;;;;21.42;100.00;102106.44;5051790;28;19950;-85
2023/09/05 09:03:26;;;;;;;;;;;;;;;21.62;100.00;102106.84;5067535;28;19924;-85
2023/09/05 09:06:12;;;;;;;;;;;;;;;21.83;100.00;102109.78;5062388;28;20361;-85
2023/09/05 09:08:57;;;;;;;;;;;;;;;22.03;100.00;102110.16;5049542;28;19924;-85
2023/09/05 09:11:46;;;;;;;;;;;;;;;22.18;100.00;102105.47;5049518;28;20030;-84
2023/09/05 09:14:32;;;;;;;;;;;;;;;22.35;100.00;102107.72;5049980;28;19940;-84
2023/09/05 09:17:18;;;;;;;;;;;;;;;22.55;100.00;102112.63;5049622;28;20031;-83
2023/09/05 09:20:04;;;;;;;;;;;;;;;22.70;100.00;102105.19;5063296;28;19925;-85
2023/09/05 09:22:50;;;;;;;;;;;;;;;22.85;100.00;102120.19;5051992;28;19962;-82
2023/09/05 09:25:45;;;;;;;;;;;;;;;22.98;100.00;102114.66;5063175;28;19963;-85
2023/09/05 09:28:34;;;;;;;;;;;;;;;23.13;100.00;102111.72;5035894;28;19924;-85
2023/09/05 09:31:23;;;;;;;;;;;;;;;23.27;100.00;102107.94;5051162;28;19929;-85
2023/09/05 09:34:10;;;;;;;;;;;;;;;23.38;100.00;102105.28;5064230;28;19982;-87
2023/09/05 09:36:56;;;;;;;;;;;;;;;23.49;100.00;102100.81;5038916;28;19929;-86
2023/09/05 09:39:42;;;;;;;;;;;;;;;23.58;100.00;102100.06;5048556;28;20091;-85
2023/09/05 09:42:28;;;;;;;;;;;;;;;23.66;100.00;102092.22;5036430;28;20047;-86
2023/09/05 09:45:15;;;;;;;;;;;;;;;23.69;100.00;102097.34;5049725;28;19951;-87
2023/09/05 09:48:01;;;;;;;;;;;;;;;23.76;100.00;102091.44;5066197;28;19948;-84
2023/09/05 09:50:47;;;;;;;;;;;;;;;23.83;100.00;102093.53;5051624;28;19921;-86
2023/09/05 09:53:37;;;;;;;;;;;;;;;23.90;100.00;102084.91;5050943;28;20500;-87
2023/09/05 09:56:23;;;;;;;;;;;;;;;23.89;100.00;102081.31;5053537;28;19928;-86
2023/09/05 09:59:09;;;;;;;;;;;;;;;23.88;100.00;102088.56;5039540;28;19935;-84
2023/09/05 10:01:57;;;;;;;;;;;;;;;23.86;100.00;102079.72;5040691;28;19929;-86
2023/09/05 10:04:43;;;;;;;;;;;;;;;23.83;100.00;102071.03;5037591;28;19928;-85
2023/09/05 10:07:29;;;;;;;;;;;;;;;23.80;100.00;102074.00;5050774;28;19924;-89
2023/09/05 10:10:15;;;;;;;;;;;;;;;23.76;99.09;102078.78;5050276;28;19974;-86
2023/09/05 10:13:01;;;;;;;;;;;;;;;23.77;97.91;102071.53;5049551;28;19924;-85
2023/09/05 10:15:47;;;;;;;;;;;;;;;23.77;98.21;102066.13;5035438;28;19924;-86
2023/09/05 10:18:34;;;;;;;;;;;;;;;23.79;100.00;102069.56;5034190;28;19924;-85
2023/09/05 10:21:20;;;;;;;;;;;;;;;23.81;98.65;102075.69;5047543;28;20781;-86
2023/09/05 10:24:06;;;;;;;;;;;;;;;23.76;98.65;102070.69;5048457;28;19932;-86
2023/09/05 10:26:51;;;;;;;;;;;;;;;23.76;97.40;102069.81;5035212;28;19951;-86
2023/09/05 10:29:44;;;;;;;;;;;;;;;23.79;97.63;102066.88;5048019;28;20051;-87
2023/09/05 10:32:30;;;;;;;;;;;;;;;23.75;96.36;102058.13;5048858;28;20380;-86
2023/09/05 10:35:16;;;;;;;;;;;;;;;23.70;96.40;102060.38;5063176;28;20019;-86
2023/09/05 10:38:04;;;;;;;;;;;;;;;23.69;96.23;102056.81;5063137;28;19928;-84
2023/09/05 10:40:50;;;;;;;;;;;;;;;23.70;97.12;102061.22;5048348;28;19927;-86
2023/09/05 10:43:39;;;;;;;;;;;;;;;23.70;94.88;102055.81;5047012;28;20364;-87
2023/09/05 10:46:25;;;;;;;;;;;;;;;23.80;94.05;102057.78;5035375;28;19929;-87
2023/09/05 10:49:14;;;;;;;;;;;;;;;23.84;95.23;102062.78;5047863;28;20014;-87
2023/09/05 10:52:18;;;;;;;;;;;;;;;23.88;95.84;102058.81;5060370;28;19931;-86
2023/09/05 10:55:23;;;;;;;;;;;;;;;23.88;95.15;102057.97;5047372;28;19921;-90
2023/09/05 10:58:28;;;;;;;;;;;;;;;23.93;95.89;102055.75;5061380;28;20299;-88
2023/09/05 11:01:32;;;;;;;;;;;;;;;24.00;92.40;102056.09;5063169;28;19947;-86
2023/09/05 11:04:18;;;;;;;;;;;;;;;24.07;95.28;102051.91;5062456;28;19933;-87
2023/09/05 11:07:05;;;;;;;;;;;;;;;24.06;93.91;102049.28;5049113;28;19974;-86
2023/09/05 11:09:57;;;;;;;;;;;;;;;24.05;95.75;102042.16;5046979;28;20062;-89
2023/09/05 11:12:42;;;;;;;;;;;;;;;24.09;95.15;102044.53;5063044;28;20329;-86
2023/09/05 11:15:31;;;;;;;;;;;;;;;24.08;94.87;102042.81;5063350;28;20440;-87
2023/09/05 11:18:19;;;;;;;;;;;;;;;24.06;94.92;102035.78;5063987;28;19925;-89
2023/09/05 11:21:07;;;;;;;;;;;;;;;24.09;93.26;102043.66;5048302;28;20001;-86
2023/09/05 11:23:53;;;;;;;;;;;;;;;24.28;90.11;102042.94;5051164;28;20062;-88
2023/09/05 11:26:42;;;;;;;;;;;;;;;24.35;90.51;102035.19;5064109;28;19928;-86
2023/09/05 11:29:30;;;;;;;;;;;;;;;24.39;87.95;102031.19;5051046;28;19928;-90
2023/09/05 11:32:15;;;;;;;;;;;;;;;24.49;88.48;102029.44;5063383;28;20380;-90
2023/09/05 11:35:03;;;;;;;;;;;;;;;24.50;86.86;102030.28;5048468;28;19924;-86
2023/09/05 11:37:57;;;;;;;;;;;;;;;24.57;86.90;102033.31;5049460;28;19920;-90
2023/09/05 11:40:49;;;;;;;;;;;;;;;24.60;87.39;102025.78;5046689;28;20375;-88
2023/09/05 11:43:36;;;;;;;;;;;;;;;24.57;87.91;102031.47;5064425;28;19925;-88
2023/09/05 11:46:24;;;;;;;;;;;;;;;24.57;87.17;102033.31;5038267;28;19934;-88
2023/09/05 11:49:10;;;;;;;;;;;;;;;24.63;86.28;102038.19;5049061;28;19928;-88
2023/09/05 11:51:56;;;;;;;;;;;;;;;24.67;86.88;102039.63;5051276;28;19929;-86
2023/09/05 11:54:42;;;;;;;;;;;;;;;24.66;86.42;102035.22;5051618;28;19956;-88
2023/09/05 11:57:27;;;;;;;;;;;;;;;24.65;86.78;102028.09;5041471;28;19986;-85
2023/09/05 12:00:15;;;;;;;;;;;;;;;24.62;86.41;102026.50;5053015;28;20031;-86
2023/09/05 12:03:01;;;;;;;;;;;;;;;24.69;85.69;102026.84;5041101;28;19952;-89
2023/09/05 12:05:51;;;;;;;;;;;;;;;24.72;84.18;102020.28;5052120;28;20424;-87
2023/09/05 12:08:41;;;;;;;;;;;;;;;24.80;86.01;102020.50;5050732;28;20394;-86
2023/09/05 12:11:27;;;;;;;;;;;;;;;24.93;84.58;102021.13;5054096;28;19925;-86
2023/09/05 12:14:16;;;;;;;;;;;;;;;25.05;85.69;102016.47;5066731;28;19924;-87
2023/09/05 12:17:01;;;;;;;;;;;;;;;25.03;85.75;102018.47;5051549;28;20002;-90
2023/09/05 12:19:48;;;;;;;;;;;;;;;24.95;86.04;102012.88;5066946;28;19962;-87
2023/09/05 12:22:34;;;;;;;;;;;;;;;24.89;86.80;102006.13;5053346;28;19929;-86
2023/09/05 12:25:24;;;;;;;;;;;;;;;24.85;87.61;102002.00;5046499;28;20303;-86
2023/09/05 12:28:20;;;;;;;;;;;;;;;24.85;87.62;102009.25;5048473;28;19921;-87
2023/09/05 12:31:17;;;;;;;;;;;;;;;24.83;86.94;101998.56;5044154;28;19928;-87
2023/09/05 12:34:02;;;;;;;;;;;;;;;24.92;86.93;101999.59;5033537;28;20370;-87
2023/09/05 12:36:50;;;;;;;;;;;;;;;25.00;84.87;101988.94;5046899;28;19931;-87
2023/09/05 12:39:35;;;;;;;;;;;;;;;25.13;81.92;101987.81;5047980;28;19929;-88
2023/09/05 12:42:21;;;;;;;;;;;;;;;25.25;80.59;101991.28;5048014;28;19924;-85
2023/09/05 12:45:07;;;;;;;;;;;;;;;25.36;80.37;101983.03;5046636;28;19929;-87
2023/09/05 12:47:53;;;;;;;;;;;;;;;25.46;81.22;101988.47;5046451;28;19975;-87
2023/09/05 12:50:39;;;;;;;;;;;;;;;25.44;81.17;101985.88;5045396;28;19978;-88
2023/09/05 12:53:26;;;;;;;;;;;;;;;25.41;83.85;101983.47;5044955;28;20409;-89
2023/09/05 12:56:12;;;;;;;;;;;;;;;25.32;84.52;101987.88;5045931;28;20015;-88
2023/09/05 12:58:57;;;;;;;;;;;;;;;25.24;84.64;101982.31;5045689;28;19982;-87
2023/09/05 13:01:45;;;;;;;;;;;;;;;25.25;86.04;101977.72;5043808;28;19932;-87
2023/09/05 13:04:33;;;;;;;;;;;;;;;25.22;87.55;101971.59;5046624;28;19929;-86
2023/09/05 13:07:23;;;;;;;;;;;;;;;25.24;87.35;101966.03;5043746;28;19939;-87
2023/09/05 13:10:08;;;;;;;;;;;;;;;25.27;87.28;101962.22;5046462;28;20020;-87
2023/09/05 13:12:54;;;;;;;;;;;;;;;25.28;85.84;101966.63;5044363;28;19995;-88
2023/09/05 13:15:43;;;;;;;;;;;;;;;25.32;84.99;101958.06;5047042;28;19932;-86
2023/09/05 13:18:29;;;;;;;;;;;;;;;25.29;83.80;101955.66;5047061;28;20029;-88
2023/09/05 13:21:15;;;;;;;;;;;;;;;25.27;83.33;101956.78;5044836;28;19925;-88
2023/09/05 13:24:01;;;;;;;;;;;;;;;25.29;85.04;101960.19;5043821;28;20015;-85
2023/09/05 13:26:46;;;;;;;;;;;;;;;25.33;85.03;101956.22;5068804;28;20406;-85
2023/09/05 13:29:33;;;;;;;;;;;;;;;25.36;86.39;101955.94;5051530;28;20351;-88
2023/09/05 13:32:18;;;;;;;;;;;;;;;25.34;85.87;101963.34;5063491;28;19950;-87
2023/09/05 13:35:05;;;;;;;;;;;;;;;25.33;84.82;101951.66;5064793;28;20377;-86
2023/09/05 13:37:51;;;;;;;;;;;;;;;25.44;84.41;101947.09;5049987;28;19972;-88
2023/09/05 13:40:41;;;;;;;;;;;;;;;25.51;85.03;101948.25;5064472;28;19979;-87
2023/09/05 13:43:56;;;;;;;;;;;;;;;25.56;85.80;101943.28;5051283;28;20027;-88
2023/09/05 13:46:42;;;;;;;;;;;;;;;25.57;85.60;101939.59;5066910;28;20332;-86
2023/09/05 13:49:36;;;;;;;;;;;;;;;25.57;85.26;101934.16;5054885;28;20062;-87
2023/09/05 13:52:24;;;;;;;;;;;;;;;25.58;84.75;101930.44;5068974;28;19928;-86
2023/09/05 13:55:10;;;;;;;;;;;;;;;25.60;85.07;101936.56;5069078;28;19939;-86
2023/09/05 13:57:56;;;;;;;;;;;;;;;25.62;85.51;101944.56;5067936;28;19932;-89
2023/09/05 14:00:41;;;;;;;;;;;;;;;25.65;82.55;101933.44;5066907;28;19929;-89
2023/09/05 14:03:27;;;;;;;;;;;;;;;25.65;84.23;101927.16;5054924;28;20019;-86
2023/09/05 14:06:13;;;;;;;;;;;;;;;25.67;85.35;101920.59;5066219;28;20009;-87
2023/09/05 14:08:59;;;;;;;;;;;;;;;25.74;84.10;101923.56;5066269;28;19924;-86
2023/09/05 14:11:45;;;;;;;;;;;;;;;25.73;87.18;101927.28;5064897;28;20526;-86
2023/09/05 14:14:34;;;;;;;;;;;;;;;25.77;86.04;101920.59;5064321;28;19939;-87